Airfield :
LOGIN :

Register | Disclaimer

   EN    FR    IT 

 










Legend :    VFR   Marginal VFR   IFR   Intensive IFR   Very Intensive IFR
Visi :
Ceiling :
>= 8 km
>= 3000ft
5 to 8 km
1000 to 3000 ft
1500m to 5 km
500 to 1000 ft
800 to 1500m
200 to 500 ft
< 800m
< 200 ft
Symbols :   Thunderstorms  Fog  Heavy snow  Heavy precipitations  Wind > 20 kt
SIGMETs :     Misc.  Thunderstorms  Icing  Turbulence  Mountain Waves  Volcanic Ashes







- Airport Elevation : 1079 ft


ETIK - Illesheim Air Base

CURRENT METAR :
  • 241656Z AUTO 30004KT 9999 BKN140 20/07 A2995 RMK AO2 SLP141 T02030066 $

EXPIRED METARs :
  • 241556Z AUTO 32005KT 9999 OVC140 21/07 A2996 RMK AO2 SLP146 T02080071 $
  • 241456Z AUTO 32005KT 9999 OVC140 22/09 A2997 RMK AO2 SLP149 T02160088 57005 $

TAF AMD TAF ETIK
Valid from the 23 at 22:00 until the 24 at 20:00 UTC


232217Z 2322/2420 VRB06KT 9999 BKN040 QNH2994INS TX21/2414Z TN05/2404Z LAST NO AMDS AFT 2322 NEXT 2722
No reported NOTAMs for that airfield.



MET'MAP, your aeronautical weather chart ! - Copyright ORBIFLY December 2007 - Disclaimer

ORBIFLY MET'MAP TEAM :

Programming & Development : Alexandra Zaïnal
Concept & Development : Baudouin d'Aumeries
Co-Development & Prog : Marc-Olivier Méhu
Technical & hardware support : Manuel Goepfert

Contact : metmap@orbifly.com




SOURCES & CREDITS :

   NOAA